Sanibel, FL

9:42 PM EDT on September 15, 2014 (GMT -0400)
Rabbit Road | Change Station
CLOSE
Current Station
Personal Weather Station
Location: Sanibel, FL
Elevation: 7 ft
Nearby Weather Stations

Elev 7 ft 26.44 °N, 82.11 °W | Updated 8 seconds ago

Clear
Clear
83.1 °F
Feels Like 90 °F
N
0.2
Wind Variable Wind from NNW
Gusts 2.5 mph

Today
High -- | Low -- °F
--% Chance of Precip.
Yesterday
High -- | Low -- °F
Precip. -- in
7:13 AM 7:32 PM
Waning Gibbous, 50% visible
Pressure 30.10 in
Visibility 10.0 miles
Clouds Clear
Heat Index 90 °F
Dew Point 74 °F
Humidity 75%
Rainfall 0.00 in
Snow Depth Not available.
UV 0 out of 12
Pollen 6.20 out of 12
Air Quality Not available.
Flu Activity Not available.
METAR KFMY 160053Z 23003KT 10SM CLR 29/19 A3010 RMK AO2 SLP193 T02940194

More Conditions Fewer Conditions

Pressure 30.10 in
Visibility 10.0 miles
Clouds Clear
Heat Index 90 °F
Dew Point 74 °F
Humidity 75%
Rainfall 0.00 in
Snow Depth Not available.
UV 0 out of 12
Pollen 6.20 out of 12
Air Quality Not available.
Flu Activity Not available.
METAR KFMY 160053Z 23003KT 10SM CLR 29/19 A3010 RMK AO2 SLP193 T02940194

More Conditions Fewer Conditions

10-Day Weather Forecast

Almanac

Astronomy

Sep. 15, 2014 Rise Set
Actual Time 7:13 AM EDT 7:32 PM EDT
Civil Twilight 6:50 AM EDT 7:55 PM EDT
Nautical Twilight 6:23 AM EDT 8:22 PM EDT
Astronomical Twilight 5:56 AM EDT 8:50 PM EDT
Moon No Moon Rise 1:40 PM EDT (9/15)
Length of Visible Light 13h 05m
Length of Day
12h 18m
Tomorrow will be 1m 33s shorter.
Waning Gibbous, 50% of the Moon is Illuminated
Today
Waning Gibbous
Sep 15
Last Quarter
Sep 24
New
Oct 1
First Quarter
Oct 8
Full

Today's Extremes

State Highs State Lows

Community

WunderPhotos

Upload Photos

1,753,643 photos uploaded!

WunderBlogs® & News

Nearby

Snow Depth

Station Depth Elevation
No new snow has been reported.

Earthquake Activity

City Distance Mag. Time & Date
No recent earthquake activity has been reported nearby.
Minimum magnitude displayed is 2.5.

Coastal Water Temperatures

Place Temperature
No Stations Reporting

Nearby Weather Stations